< Typhoon 201412 2014 Season Typhoon 201414 >
Typhoon 201413 (GENEVIEVE)
General InformationTrack Information on Google MapsDetailed Wind InformationForecast History on Google MapsAccess Analytics MapList of All Images || NewsDisaster Info.WeblogTrackbackTyphoon FrontTwiphoonTyphoon Now!Typhoon ImaginationDisaster Info. XMLResourceGoogle EarthGE AnimationAtom FeedGeoJSON
Detalied Best Track (Time Zone = UTC)
Year Month Day Hour Lat. Long. Pressure (hPa) Wind (kt) Class Image Chart
2014 8 7 00 13.6 181.2 950 90 7 Image Chart
2014 8 7 06 14.4 180.0 925 100 5 Image Chart
2014 8 7 12 15.1 178.7 925 100 5 Image Chart
2014 8 7 18 15.7 177.5 915 110 5 Image Chart
2014 8 8 00 16.2 176.7 915 110 5 Image Chart
2014 8 8 06 16.8 176.1 915 110 5 Image Chart
2014 8 8 12 17.5 175.9 925 100 5 Image Chart
2014 8 8 18 18.5 176.0 925 100 5 Image Chart
2014 8 9 00 19.6 176.4 930 100 5 Image Chart
2014 8 9 06 21.1 176.9 935 95 5 Image Chart
2014 8 9 12 22.7 177.3 940 90 5 Image Chart
2014 8 9 18 24.5 176.9 945 85 5 Image Chart
2014 8 10 00 26.6 176.2 950 85 5 Image Chart
2014 8 10 06 28.5 175.2 955 80 5 Image Chart
2014 8 10 12 30.2 173.8 965 70 5 Image Chart
2014 8 10 18 31.5 172.1 975 60 4 Image Chart
2014 8 11 00 32.8 170.3 985 50 4 Image Chart
2014 8 11 06 33.8 169.2 990 45 3 Image Chart
2014 8 11 12 34.4 168.2 994 40 3 Image Chart
2014 8 11 18 34.6 167.4 998 35 3 Image Chart
2014 8 12 00 34.9 166.7 1004 35 3 Image Chart
2014 8 12 06 35.1 166.0 1008 0 2 Image Chart
2014 8 12 12 35.4 165.5 1010 0 2 Image Chart
2014 8 12 18 35.7 164.9 1012 0 2 Image Chart
2014 8 13 00 36.3 164.7 1012 0 2 Image Chart
2014 8 13 06 36.8 164.8 1012 0 2 Image Chart
2014 8 13 12 37.4 165.6 1012 0 2 Image Chart
2014 8 13 18 37.9 167.0 1012 0 2 Image Chart
2014 8 14 00 38.6 168.7 1012 0 2 Image Chart
2014 8 14 06 39.1 171.3 1012 0 2 Image Chart
Japan Meteorological Agency Best Track Data | Correction Date : 2014-09-25
< Typhoon 201412 2014 Season Typhoon 201414 >

Help